createdAt,value
2022-08-02T00:00:44.848Z,92.20
2022-08-02T00:03:13.252Z,91.50
2022-08-02T00:05:41.444Z,91.30
2022-08-02T00:08:12.256Z,91.20
2022-08-02T00:10:40.320Z,92.60
2022-08-02T00:13:10.191Z,92.60
2022-08-02T00:15:38.276Z,92.60
2022-08-02T00:18:06.398Z,92.50
2022-08-02T00:20:34.509Z,92.90
2022-08-02T00:23:02.595Z,93.70
2022-08-02T00:25:31.914Z,94.00
2022-08-02T00:28:02.080Z,94.10
2022-08-02T00:30:30.355Z,95.00
2022-08-02T00:32:58.481Z,96.00
2022-08-02T00:35:26.724Z,96.20
2022-08-02T00:37:57.416Z,96.70
2022-08-02T00:40:28.562Z,98.20
2022-08-02T00:43:06.774Z,98.80
2022-08-02T00:46:01.953Z,97.90
2022-08-02T00:48:23.781Z,97.80
2022-08-02T00:50:51.919Z,99.50
2022-08-02T00:53:19.937Z,99.80
2022-08-02T00:55:48.183Z,99.10
2022-08-02T00:58:18.488Z,98.10
2022-08-02T01:00:46.722Z,98.00
2022-08-02T01:03:14.751Z,98.40
2022-08-02T01:06:10.096Z,97.70
2022-08-02T01:08:33.322Z,98.10
2022-08-02T01:11:01.467Z,98.70
2022-08-02T01:13:33.129Z,99.50
2022-08-02T01:16:10.025Z,99.50
2022-08-02T01:18:42.813Z,99.90
2022-08-02T01:21:39.225Z,99.90
2022-08-02T01:24:22.609Z,99.90
2022-08-02T01:26:56.121Z,99.90
2022-08-02T01:29:31.428Z,99.90
2022-08-02T01:32:07.306Z,99.90
2022-08-02T01:34:41.215Z,99.90
2022-08-02T01:37:15.265Z,99.90
2022-08-02T01:39:45.477Z,99.90
2022-08-02T01:42:15.093Z,99.90
2022-08-02T01:44:46.767Z,99.90
2022-08-02T01:47:19.325Z,99.90
2022-08-02T01:49:51.523Z,99.90
2022-08-02T01:52:22.821Z,99.90
2022-08-02T01:54:58.019Z,99.90
2022-08-02T01:57:28.560Z,99.90
2022-08-02T02:00:01.503Z,99.90
2022-08-02T02:02:33.477Z,99.90
2022-08-02T02:05:03.898Z,99.90
2022-08-02T02:07:34.684Z,99.90
2022-08-02T02:10:04.539Z,99.90
2022-08-02T02:12:34.829Z,99.90
2022-08-02T02:15:05.731Z,99.90
2022-08-02T02:17:50.509Z,99.90
2022-08-02T02:20:23.509Z,99.90
2022-08-02T02:22:52.330Z,99.90
2022-08-02T02:25:24.942Z,99.90
2022-08-02T02:28:07.971Z,99.90
2022-08-02T02:30:40.911Z,99.90
2022-08-02T02:33:10.591Z,99.90
2022-08-02T02:35:39.313Z,99.90
2022-08-02T02:38:12.971Z,99.90
2022-08-02T02:40:42.994Z,99.90
2022-08-02T02:43:13.887Z,99.90
2022-08-02T02:45:44.617Z,99.90
2022-08-02T02:48:14.951Z,99.90
2022-08-02T02:50:43.990Z,99.90
2022-08-02T02:53:14.314Z,99.90
2022-08-02T02:56:02.646Z,99.90
2022-08-02T02:58:32.205Z,99.90
2022-08-02T03:01:19.907Z,99.90
2022-08-02T03:03:48.393Z,99.90
2022-08-02T03:06:16.568Z,99.90
2022-08-02T03:08:45.056Z,99.90
2022-08-02T03:11:16.512Z,99.90
2022-08-02T03:13:47.581Z,99.90
2022-08-02T03:16:17.139Z,99.90
2022-08-02T03:18:45.762Z,99.90
2022-08-02T03:21:15.163Z,99.90
2022-08-02T03:23:44.630Z,99.90
2022-08-02T03:26:12.774Z,99.90
2022-08-02T03:28:41.253Z,99.90
2022-08-02T03:31:09.439Z,99.90
2022-08-02T03:33:39.857Z,99.90
2022-08-02T03:36:13.414Z,99.90
2022-08-02T03:38:42.737Z,99.90
2022-08-02T03:41:12.069Z,99.90
2022-08-02T03:43:41.379Z,99.90
2022-08-02T03:46:13.918Z,99.90
2022-08-02T03:48:43.885Z,99.90
2022-08-02T03:51:12.663Z,99.90
2022-08-02T03:53:41.536Z,99.90
2022-08-02T03:56:11.038Z,99.90
2022-08-02T03:58:39.081Z,99.90
2022-08-02T04:01:07.123Z,99.90
2022-08-02T04:03:35.402Z,99.90
2022-08-02T04:06:05.111Z,99.90
2022-08-02T04:08:37.989Z,99.90
2022-08-02T04:11:24.503Z,99.90
2022-08-02T04:13:56.504Z,99.90
2022-08-02T04:16:33.007Z,99.90
2022-08-02T04:19:04.751Z,99.90
2022-08-02T04:21:49.011Z,93.90
2022-08-02T04:24:24.716Z,86.90
2022-08-02T04:26:54.915Z,82.30
2022-08-02T04:29:27.414Z,78.30
2022-08-02T04:31:58.569Z,75.60
2022-08-02T04:34:27.375Z,73.00
2022-08-02T04:36:57.498Z,73.30
2022-08-02T04:39:25.644Z,75.60
2022-08-02T04:41:57.566Z,78.60
2022-08-02T04:44:26.062Z,81.50
2022-08-02T04:46:54.671Z,84.10
2022-08-02T04:49:25.337Z,86.30
2022-08-02T04:51:53.448Z,87.70
2022-08-02T04:54:22.930Z,88.60
2022-08-02T04:56:51.077Z,89.00
2022-08-02T04:59:21.817Z,89.90
2022-08-02T05:01:50.100Z,89.70
2022-08-02T05:04:21.479Z,88.90
2022-08-02T05:06:49.820Z,87.40
2022-08-02T05:09:17.961Z,86.20
2022-08-02T05:11:54.766Z,83.30
2022-08-02T05:14:23.380Z,81.40
2022-08-02T05:16:51.502Z,78.10
2022-08-02T05:19:19.540Z,75.20
2022-08-02T05:21:47.645Z,75.80
2022-08-02T05:24:15.726Z,74.10
2022-08-02T05:26:43.828Z,73.90
2022-08-02T05:29:13.321Z,71.60
2022-08-02T05:31:41.433Z,70.50
2022-08-02T05:34:11.956Z,70.00
2022-08-02T05:36:40.661Z,69.60
2022-08-02T05:39:12.444Z,70.10
2022-08-02T05:41:47.372Z,71.00
2022-08-02T05:44:16.772Z,71.00
2022-08-02T05:46:44.837Z,70.40
2022-08-02T05:49:18.085Z,68.40
2022-08-02T05:52:01.084Z,67.50
2022-08-02T05:54:42.041Z,66.70
2022-08-02T05:57:18.256Z,65.70
2022-08-02T05:59:58.801Z,66.20
2022-08-02T06:02:30.989Z,66.50
2022-08-02T06:05:05.709Z,66.40
2022-08-02T06:07:36.843Z,65.50
2022-08-02T06:10:06.201Z,66.00
2022-08-02T06:12:41.912Z,66.10
2022-08-02T06:15:15.884Z,66.30
2022-08-02T06:17:45.428Z,66.40
2022-08-02T06:20:15.079Z,66.50
2022-08-02T06:22:44.803Z,67.00
2022-08-02T06:25:49.984Z,67.20
2022-08-02T06:28:04.140Z,66.60
2022-08-02T06:30:40.842Z,67.50
2022-08-02T06:33:12.386Z,67.50
2022-08-02T06:35:46.320Z,67.40
2022-08-02T06:38:20.178Z,68.10
2022-08-02T06:40:54.915Z,68.40
2022-08-02T06:43:35.401Z,68.10
2022-08-02T06:47:08.316Z,68.10
2022-08-02T06:48:58.132Z,68.30
2022-08-02T06:51:28.698Z,68.50
2022-08-02T06:53:56.867Z,68.00
2022-08-02T06:56:25.278Z,68.80
2022-08-02T06:58:53.409Z,67.80
2022-08-02T07:01:22.902Z,67.90
2022-08-02T07:03:53.243Z,67.50
2022-08-02T07:06:21.803Z,67.30
2022-08-02T07:09:11.297Z,67.00
2022-08-02T07:11:37.983Z,67.20
2022-08-02T07:14:06.048Z,66.10
2022-08-02T07:16:35.457Z,65.70
2022-08-02T07:19:05.656Z,66.30
2022-08-02T07:21:57.811Z,66.40
2022-08-02T07:24:22.155Z,66.10
2022-08-02T07:27:10.796Z,65.80
2022-08-02T07:29:45.178Z,65.40
2022-08-02T07:32:16.589Z,65.40
2022-08-02T07:34:51.058Z,65.00
2022-08-02T07:37:35.087Z,64.40
2022-08-02T07:40:14.905Z,64.20
2022-08-02T07:42:48.210Z,64.00
2022-08-02T07:45:16.466Z,64.10
2022-08-02T07:47:46.523Z,63.50
2022-08-02T07:50:16.225Z,63.10
2022-08-02T07:52:46.212Z,62.70
2022-08-02T07:55:15.601Z,61.80
2022-08-02T07:57:46.795Z,61.80
2022-08-02T08:00:18.693Z,61.50
2022-08-02T08:02:48.294Z,61.30
2022-08-02T08:05:16.866Z,61.10
2022-08-02T08:07:44.997Z,60.30
2022-08-02T08:10:13.213Z,60.50
2022-08-02T08:12:41.425Z,60.00
2022-08-02T08:15:10.640Z,59.90
2022-08-02T08:17:39.199Z,59.30
2022-08-02T08:20:14.034Z,58.80
2022-08-02T08:22:43.726Z,58.60
2022-08-02T08:25:11.959Z,57.80
2022-08-02T08:27:48.220Z,57.40
2022-08-02T08:30:16.649Z,56.70
2022-08-02T08:32:47.101Z,55.80
2022-08-02T08:35:16.958Z,55.20
2022-08-02T08:37:45.080Z,55.80
2022-08-02T08:40:19.390Z,56.00
2022-08-02T08:42:47.966Z,56.60
2022-08-02T08:45:17.862Z,56.20
2022-08-02T08:47:47.882Z,56.20
2022-08-02T08:50:25.169Z,55.40
2022-08-02T08:52:58.593Z,55.00
2022-08-02T08:55:28.687Z,55.10
2022-08-02T08:57:58.177Z,55.50
2022-08-02T09:00:26.575Z,54.80
2022-08-02T09:02:54.787Z,54.10
2022-08-02T09:05:25.238Z,53.30
2022-08-02T09:07:54.551Z,52.50
2022-08-02T09:10:40.782Z,52.90
2022-08-02T09:13:39.042Z,52.90
2022-08-02T09:16:11.219Z,52.90
2022-08-02T09:18:43.751Z,52.10
2022-08-02T09:21:13.819Z,51.40
2022-08-02T09:23:46.007Z,51.10
2022-08-02T09:26:18.658Z,50.90
2022-08-02T09:28:50.025Z,50.60
2022-08-02T09:31:19.880Z,51.00
2022-08-02T09:33:52.617Z,50.50
2022-08-02T09:36:23.668Z,51.50
2022-08-02T09:38:57.529Z,51.30
2022-08-02T09:41:27.063Z,51.00
2022-08-02T09:44:04.346Z,51.20
2022-08-02T09:46:37.318Z,51.00
2022-08-02T09:49:08.092Z,50.80
2022-08-02T09:51:39.254Z,49.80
2022-08-02T09:54:09.839Z,48.30
2022-08-02T09:56:46.673Z,48.80
2022-08-02T09:59:15.623Z,47.00
2022-08-02T10:01:50.753Z,47.10
2022-08-02T10:04:26.182Z,46.70
2022-08-02T10:06:55.821Z,46.70
2022-08-02T10:09:24.026Z,46.00
2022-08-02T10:11:54.614Z,46.10
2022-08-02T10:14:23.464Z,46.00
2022-08-02T10:16:54.495Z,46.50
2022-08-02T10:20:00.623Z,45.50
2022-08-02T10:22:15.304Z,45.00
2022-08-02T10:24:48.247Z,44.70
2022-08-02T10:27:19.968Z,44.70
2022-08-02T10:29:55.124Z,44.70
2022-08-02T10:32:28.211Z,44.30
2022-08-02T10:35:18.657Z,43.70
2022-08-02T10:37:54.865Z,43.90
2022-08-02T10:40:26.193Z,45.20
2022-08-02T10:43:00.833Z,45.10
2022-08-02T10:45:29.867Z,44.50
2022-08-02T10:47:59.637Z,43.80
2022-08-02T10:50:54.061Z,43.90
2022-08-02T10:53:28.982Z,42.80
2022-08-02T10:55:58.589Z,42.40
2022-08-02T10:58:30.054Z,42.20
2022-08-02T11:01:00.015Z,42.20
2022-08-02T11:03:42.663Z,41.60
2022-08-02T11:06:25.423Z,41.80
2022-08-02T11:09:33.494Z,41.80
2022-08-02T11:12:04.277Z,41.10
2022-08-02T11:14:35.263Z,40.80
2022-08-02T11:17:09.106Z,41.60
2022-08-02T11:20:15.726Z,41.50
2022-08-02T11:22:47.130Z,41.30
2022-08-02T11:26:02.263Z,40.20
2022-08-02T11:28:25.659Z,41.00
2022-08-02T11:31:02.844Z,40.20
2022-08-02T11:33:36.801Z,39.70
2022-08-02T11:36:07.307Z,39.40
2022-08-02T11:38:35.634Z,38.60
2022-08-02T11:41:10.337Z,39.00
2022-08-02T11:43:39.688Z,39.20
2022-08-02T11:46:14.293Z,38.80
2022-08-02T11:48:44.709Z,38.30
2022-08-02T11:51:14.262Z,38.50
2022-08-02T11:53:48.082Z,39.50
2022-08-02T11:56:24.837Z,39.60
2022-08-02T11:59:03.708Z,39.30
2022-08-02T12:01:36.886Z,39.00
2022-08-02T12:04:16.664Z,38.50
2022-08-02T12:06:45.270Z,38.30
2022-08-02T12:09:18.825Z,37.80
2022-08-02T12:11:51.947Z,37.60
2022-08-02T12:14:20.543Z,38.00
2022-08-02T12:17:07.925Z,38.10
2022-08-02T12:19:37.782Z,38.40
2022-08-02T12:22:11.312Z,37.80
2022-08-02T12:24:41.041Z,37.90
2022-08-02T12:27:13.742Z,37.90
2022-08-02T12:29:58.789Z,37.90
2022-08-02T12:32:27.852Z,37.80
2022-08-02T12:35:04.578Z,38.40
2022-08-02T12:37:35.694Z,37.80
2022-08-02T12:40:20.815Z,37.90
2022-08-02T12:42:57.501Z,38.40
2022-08-02T12:45:26.659Z,37.50
2022-08-02T12:48:05.132Z,37.20
2022-08-02T12:50:37.381Z,36.50
2022-08-02T12:53:08.661Z,36.50
2022-08-02T12:56:01.651Z,36.30
2022-08-02T12:58:30.777Z,35.80
2022-08-02T13:01:00.790Z,35.90
2022-08-02T13:04:07.563Z,35.50
2022-08-02T13:06:43.014Z,36.00
2022-08-02T13:09:15.430Z,35.40
2022-08-02T13:11:44.027Z,35.90
2022-08-02T13:14:14.577Z,35.60
2022-08-02T13:16:46.197Z,35.70
2022-08-02T13:19:16.065Z,34.80
2022-08-02T13:22:11.314Z,36.00
2022-08-02T13:24:40.818Z,36.30
2022-08-02T13:27:23.705Z,36.80
2022-08-02T13:29:54.557Z,36.60
2022-08-02T13:32:23.273Z,36.40
2022-08-02T13:34:51.563Z,36.00
2022-08-02T13:37:19.821Z,35.60
2022-08-02T13:40:11.882Z,35.00
2022-08-02T13:42:36.611Z,34.60
2022-08-02T13:45:13.427Z,35.30
2022-08-02T13:47:57.505Z,35.20
2022-08-02T13:50:33.748Z,35.20
2022-08-02T13:53:04.472Z,35.00
2022-08-02T13:55:32.608Z,34.60
2022-08-02T13:58:00.836Z,34.80
2022-08-02T14:00:35.207Z,34.80
2022-08-02T14:03:08.087Z,35.10
2022-08-02T14:05:47.443Z,35.30
2022-08-02T14:08:19.053Z,35.50
2022-08-02T14:10:48.057Z,35.10
2022-08-02T14:13:16.551Z,35.20
2022-08-02T14:15:46.427Z,35.20
2022-08-02T14:18:15.362Z,35.10
2022-08-02T14:20:44.458Z,35.00
2022-08-02T14:23:12.587Z,34.80
2022-08-02T14:25:40.889Z,34.90
2022-08-02T14:28:09.336Z,34.90
2022-08-02T14:30:37.453Z,35.00
2022-08-02T14:33:07.025Z,34.50
2022-08-02T14:35:35.311Z,34.30
2022-08-02T14:38:03.473Z,34.10
2022-08-02T14:40:32.232Z,33.90
2022-08-02T14:43:01.131Z,34.70
2022-08-02T14:45:39.764Z,35.10
2022-08-02T14:48:12.130Z,35.40
2022-08-02T14:50:40.761Z,35.00
2022-08-02T14:53:12.526Z,35.10
2022-08-02T14:55:42.005Z,34.70
2022-08-02T14:58:10.401Z,34.50
2022-08-02T15:00:40.924Z,33.80
2022-08-02T15:03:11.463Z,34.00
2022-08-02T15:05:39.666Z,34.40
2022-08-02T15:08:08.249Z,34.70
2022-08-02T15:10:36.499Z,34.60
2022-08-02T15:13:05.106Z,34.20
2022-08-02T15:15:43.147Z,34.70
2022-08-02T15:18:14.248Z,34.80
2022-08-02T15:20:53.456Z,35.10
2022-08-02T15:23:37.139Z,35.60
2022-08-02T15:26:06.347Z,34.70
2022-08-02T15:28:35.007Z,34.40
2022-08-02T15:31:03.214Z,34.40
2022-08-02T15:33:32.782Z,33.50
2022-08-02T15:36:00.968Z,33.70
2022-08-02T15:38:29.172Z,33.60
2022-08-02T15:40:57.326Z,34.10
2022-08-02T15:43:25.748Z,33.70
2022-08-02T15:45:54.371Z,34.00
2022-08-02T15:48:22.908Z,33.60
2022-08-02T15:50:52.425Z,33.00
2022-08-02T15:53:20.519Z,33.50
2022-08-02T15:56:04.192Z,33.90
2022-08-02T15:58:33.381Z,34.00
2022-08-02T16:01:08.945Z,34.00
2022-08-02T16:03:37.120Z,34.00
2022-08-02T16:06:06.649Z,33.90
2022-08-02T16:08:35.119Z,33.70
2022-08-02T16:11:03.329Z,33.40
2022-08-02T16:13:53.677Z,32.80
2022-08-02T16:16:23.406Z,33.10
2022-08-02T16:18:51.661Z,33.10
2022-08-02T16:21:22.789Z,33.40
2022-08-02T16:24:01.932Z,33.10
2022-08-02T16:26:33.133Z,34.20
2022-08-02T16:29:07.858Z,33.70
2022-08-02T16:31:42.544Z,34.00
2022-08-02T16:34:13.900Z,34.40
2022-08-02T16:36:43.931Z,34.30
2022-08-02T16:39:12.291Z,34.50
2022-08-02T16:41:50.489Z,34.30
2022-08-02T16:44:29.064Z,34.30
2022-08-02T16:47:01.058Z,34.10
2022-08-02T16:50:04.698Z,33.30
2022-08-02T16:52:19.981Z,33.20
2022-08-02T16:54:50.579Z,33.40
2022-08-02T16:57:19.826Z,32.80
2022-08-02T16:59:57.453Z,33.00
2022-08-02T17:02:27.754Z,32.70
2022-08-02T17:04:58.550Z,32.90
2022-08-02T17:08:07.163Z,32.90
2022-08-02T17:10:18.612Z,32.70
2022-08-02T17:12:51.213Z,32.80
2022-08-02T17:16:08.516Z,33.20
2022-08-02T17:18:08.855Z,33.50
2022-08-02T17:20:37.616Z,33.90
2022-08-02T17:23:08.787Z,34.20
2022-08-02T17:25:44.407Z,34.00
2022-08-02T17:28:20.658Z,34.20
2022-08-02T17:30:59.730Z,34.40
2022-08-02T17:33:28.757Z,34.40
2022-08-02T17:35:57.080Z,34.40
2022-08-02T17:38:27.346Z,34.70
2022-08-02T17:40:58.770Z,34.90
2022-08-02T17:46:15.193Z,35.20
2022-08-02T17:49:02.131Z,35.40
2022-08-02T17:52:15.466Z,35.50
2022-08-02T17:54:21.903Z,35.50
2022-08-02T17:56:51.523Z,35.50
2022-08-02T17:59:22.356Z,35.60
2022-08-02T18:02:03.736Z,35.40
2022-08-02T18:04:33.281Z,35.30
2022-08-02T18:07:04.146Z,35.60
2022-08-02T18:09:34.681Z,35.50
2022-08-02T18:12:03.066Z,35.50
2022-08-02T18:14:31.379Z,35.40
2022-08-02T18:16:59.461Z,35.40
2022-08-02T18:19:33.105Z,35.70
2022-08-02T18:22:13.762Z,35.90
2022-08-02T18:24:44.926Z,36.20
2022-08-02T18:27:14.050Z,36.40
2022-08-02T18:29:42.231Z,36.50
2022-08-02T18:32:10.450Z,36.90
2022-08-02T18:34:40.096Z,37.20
2022-08-02T18:37:08.451Z,37.50
2022-08-02T18:39:38.380Z,37.80
2022-08-02T18:42:08.400Z,38.30
2022-08-02T18:44:38.887Z,38.50
2022-08-02T18:47:07.682Z,38.70
2022-08-02T18:49:45.977Z,38.60
2022-08-02T18:52:15.805Z,38.70
2022-08-02T18:54:59.411Z,39.00
2022-08-02T18:58:02.106Z,39.20
2022-08-02T19:00:20.685Z,39.80
2022-08-02T19:02:54.142Z,39.90
2022-08-02T19:05:24.085Z,40.10
2022-08-02T19:08:12.813Z,39.90
2022-08-02T19:10:49.187Z,40.30
2022-08-02T19:13:19.751Z,40.50
2022-08-02T19:15:48.500Z,40.80
2022-08-02T19:18:16.540Z,40.70
2022-08-02T19:20:48.545Z,41.10
2022-08-02T19:23:21.542Z,41.40
2022-08-02T19:25:54.773Z,41.60
2022-08-02T19:28:26.190Z,41.70
2022-08-02T19:30:54.950Z,42.10
2022-08-02T19:33:54.985Z,42.50
2022-08-02T19:36:11.788Z,42.80
2022-08-02T19:38:44.004Z,43.10
2022-08-02T19:41:14.706Z,43.00
2022-08-02T19:44:26.159Z,42.90
2022-08-02T19:46:41.639Z,43.00
2022-08-02T19:52:22.235Z,43.50
2022-08-02T19:54:54.396Z,43.60
2022-08-02T19:57:25.417Z,43.80
2022-08-02T19:59:55.237Z,44.10
2022-08-02T20:02:23.355Z,44.50
2022-08-02T20:04:52.923Z,44.30
2022-08-02T20:07:54.902Z,45.10
2022-08-02T20:10:14.193Z,45.30
2022-08-02T20:12:53.541Z,45.90
2022-08-02T20:15:23.785Z,46.10
2022-08-02T20:18:14.827Z,46.60
2022-08-02T20:20:56.949Z,46.40
2022-08-02T20:23:33.188Z,46.40
2022-08-02T20:26:02.469Z,46.60
2022-08-02T20:28:31.964Z,46.50
2022-08-02T20:31:07.074Z,46.50
2022-08-02T20:33:37.057Z,47.00
2022-08-02T20:36:24.509Z,47.20
2022-08-02T20:38:52.566Z,47.30
2022-08-02T20:41:37.008Z,47.20
2022-08-02T20:44:15.464Z,47.30
2022-08-02T20:46:59.502Z,47.40
2022-08-02T20:49:41.288Z,47.40
2022-08-02T20:52:24.049Z,47.30
2022-08-02T20:54:53.780Z,47.60
2022-08-02T20:57:49.081Z,48.40
2022-08-02T21:00:13.708Z,49.70
2022-08-02T21:02:43.241Z,51.00
2022-08-02T21:05:17.219Z,51.40
2022-08-02T21:07:47.764Z,51.40
2022-08-02T21:10:16.495Z,51.10
2022-08-02T21:12:45.389Z,51.10
2022-08-02T21:15:13.986Z,51.50
2022-08-02T21:17:50.996Z,51.50
2022-08-02T21:20:29.463Z,51.70
2022-08-02T21:22:58.196Z,51.90
2022-08-02T21:25:42.411Z,52.50
2022-08-02T21:28:17.514Z,53.20
2022-08-02T21:30:46.203Z,53.20
2022-08-02T21:33:23.231Z,53.90
2022-08-02T21:36:03.782Z,54.90
2022-08-02T21:38:35.266Z,55.10
2022-08-02T21:41:06.002Z,55.80
2022-08-02T21:43:40.242Z,56.10
2022-08-02T21:46:14.637Z,56.80
2022-08-02T21:48:44.496Z,57.90
2022-08-02T21:51:15.839Z,57.70
2022-08-02T21:54:18.750Z,58.30
2022-08-02T21:56:32.602Z,58.70
2022-08-02T21:59:13.558Z,59.20
2022-08-02T22:01:52.781Z,59.30
2022-08-02T22:04:34.069Z,60.10
2022-08-02T22:07:04.568Z,59.90
2022-08-02T22:09:43.287Z,60.10
2022-08-02T22:12:18.333Z,60.40
2022-08-02T22:14:54.263Z,61.20
2022-08-02T22:17:51.812Z,61.80
2022-08-02T22:20:29.173Z,62.00
2022-08-02T22:22:59.946Z,62.80
2022-08-02T22:25:36.650Z,63.40
2022-08-02T22:28:34.845Z,63.50
2022-08-02T22:30:56.973Z,63.70
2022-08-02T22:33:47.101Z,64.40
2022-08-02T22:36:30.644Z,64.90
2022-08-02T22:38:59.403Z,64.80
2022-08-02T22:42:01.569Z,65.40
2022-08-02T22:44:18.542Z,65.30
2022-08-02T22:46:49.722Z,65.70
2022-08-02T22:49:38.996Z,66.40
2022-08-02T22:52:09.653Z,67.10
2022-08-02T22:54:38.883Z,66.80
2022-08-02T22:57:11.234Z,67.70
2022-08-02T22:58:39.901Z,35.00
2022-08-02T22:59:05.254Z,43.50
2022-08-02T22:59:40.861Z,68.10
2022-08-02T23:02:09.646Z,68.00
2022-08-02T23:04:38.352Z,69.30
2022-08-02T23:07:11.178Z,69.00
2022-08-02T23:09:45.598Z,69.30
2022-08-02T23:12:23.398Z,70.00
2022-08-02T23:14:57.497Z,70.90
2022-08-02T23:17:46.668Z,70.60
2022-08-02T23:20:19.968Z,70.80
2022-08-02T23:23:00.911Z,71.40
2022-08-02T23:25:33.744Z,71.90
2022-08-02T23:28:09.102Z,72.20
2022-08-02T23:30:41.591Z,72.50
2022-08-02T23:33:28.532Z,72.80
2022-08-02T23:36:00.267Z,73.30
2022-08-02T23:38:30.572Z,74.10
2022-08-02T23:40:58.854Z,73.70
2022-08-02T23:43:27.818Z,74.40
2022-08-02T23:46:03.879Z,73.40
2022-08-02T23:48:33.216Z,74.40
2022-08-02T23:51:04.359Z,74.70
2022-08-02T23:53:34.650Z,74.30
2022-08-02T23:56:07.113Z,74.50
2022-08-02T23:58:35.713Z,75.60
